PAFAPASC

Guest
Details From PAFA - Fairbanks Intl
To PASC - Deadhorse
Flight Number -
Tags Generated
Created
Modified
Stats Distance 323 nm / 599 km
Max Altitude 0 ft / 0 m
Waypoints 3
Social Downloads 1
Likes 0
Share VATSIM

Download

Looking for another format? Having issues loading an existing format? Contact us
Advertisement - Login to hide

Notes

Generated

Route

PAFA R0595 PASC

ID Type Via Altitude Latitude Longitude Leg Dist Tot Dist Heading (true) Name
O PAFA APT - 0 ft / 0 m 64.81606˚ -147.84656˚ - 0 nm - -
R0595 FIX - 0 ft / 0 m 70.19246˚ -148.49046˚ 323 nm 323 nm 358° / 357° -
O PASC APT - 0 ft / 0 m 70.19246˚ -148.49046˚ 0 nm 323 nm 0° / 180° -

Altitude Profile

Advertisement - Login to hide

Weather


0- 5 10 15 20 25 30 35+ Temperature / ° C

Clouds and Precipitation
Forecast for 2018-05-21 00:00 UTC. Updated 2 hours ago

Ground ~20,000 ft ~40,000 ft Winds

PAFA

Details ICAO PAFA (FAI)
Name FAIRBANKS INTL
Region USA (Alaska)
Timezone America/Anchorage (UTC-8.0)
Stats Elevation 434 ft / 132 m (AMSL)
Location 64.813909° -147.855392°
Runways 3
Magnetic Variation 17.329° E

METAR

PAFA 210053Z 00000KT 10SM FEW070 SCT085 SCT110 BKN250 20/04 A2942

Decode

TAF

TAF PAFA 202332Z 2100/2206 08006KT P6SM SCT050 BKN110 BKN190 FM210200 05009KT P6SM VCSH FEW030 BKN050 OVC100 FM210500 01005KT P6SM -SHRA BKN030 OVC050 FM212000 07004KT P6SM VCSH SCT030 BKN050 BKN100 FM220200 36004KT P6SM SCT050 SCT100

Decode

Departure Runways

ID Width Length Bearing (true) Bearing (mag) Surface Threshold Offset Overrun Length
01 75 ft / 23 m 2,892 ft / 881 m 38.04° 20.71° Gravel 0 ft / 0 m 0 ft / 0 m
01L 150 ft / 46 m 11,767 ft / 3,587 m 38.00° 20.67° Asphalt 750 ft / 229 m 0 ft / 0 m
01R 100 ft / 30 m 6,482 ft / 1,976 m 38.01° 20.68° Asphalt 0 ft / 0 m 0 ft / 0 m
19 75 ft / 23 m 2,892 ft / 881 m 218.05° 200.72° Gravel 0 ft / 0 m 0 ft / 0 m
19L 100 ft / 30 m 6,482 ft / 1,976 m 218.04° 200.71° Asphalt 0 ft / 0 m 0 ft / 0 m
19R 150 ft / 46 m 11,767 ft / 3,587 m 218.04° 200.71° Asphalt 750 ft / 229 m 0 ft / 0 m

PASC

Details ICAO PASC (SCC)
Name DEADHORSE
Region USA (Alaska)
Timezone America/Anchorage (UTC-8.0)
Stats Elevation 64 ft / 20 m (AMSL)
Location 70.194754° -148.465162°
Runways 1
Magnetic Variation 17.750° E

METAR

PASC 210053Z 07022KT 10SM OVC008 M02/M04 A2992

Decode

TAF

TAF PASC 202332Z 2100/2124 08022KT P6SM OVC007 FM210800 07018KT 2SM BR VCSH OVC007 FM212200 07021KT 4SM -SN BR OVC007

Decode

Destination Runways

ID Width Length Bearing (true) Bearing (mag) Surface Threshold Offset Overrun Length
04 151 ft / 46 m 6,506 ft / 1,983 m 74.98° 57.23° Asphalt 0 ft / 0 m 0 ft / 0 m
22 151 ft / 46 m 6,506 ft / 1,983 m 255.03° 237.28° Asphalt 0 ft / 0 m 0 ft / 0 m

Approach Navaids

Runway Type Ident Frequency Range Bearing (true) Bearing (mag) Slope Elevation
04 Localiser ISCC 109.30 MHz 18 nm / 33 km 75.03° 57.28° - 64 ft / 20 m (AMSL)
04 Glidescope ISCC 109.30 MHz 10 nm / 19 km 75.00° 57.25° 3.00° 52 ft / 16 m (AMSL)

Popular Alternatives